createdAt,value
2022-08-20T00:02:16.514Z,96538.72
2022-08-20T00:04:44.998Z,96532.28
2022-08-20T00:07:15.196Z,96537.16
2022-08-20T00:09:44.119Z,96543.41
2022-08-20T00:12:14.207Z,96550.91
2022-08-20T00:14:42.376Z,96545.31
2022-08-20T00:17:10.673Z,96535.16
2022-08-20T00:19:38.927Z,96541.34
2022-08-20T00:22:07.194Z,96545.19
2022-08-20T00:24:36.593Z,96541.34
2022-08-20T00:27:04.877Z,96536.00
2022-08-20T00:29:32.949Z,96534.47
2022-08-20T00:32:02.127Z,96537.13
2022-08-20T00:34:30.480Z,96537.63
2022-08-20T00:36:58.641Z,96538.44
2022-08-20T00:39:26.893Z,96535.28
2022-08-20T00:41:56.350Z,96535.81
2022-08-20T00:44:24.901Z,96544.09
2022-08-20T00:46:54.353Z,96536.09
2022-08-20T00:49:26.525Z,96548.19
2022-08-20T00:52:02.130Z,96546.81
2022-08-20T00:54:36.161Z,96541.75
2022-08-20T00:57:10.650Z,96558.38
2022-08-20T00:59:42.585Z,96553.31
2022-08-20T01:02:15.396Z,96558.69
2022-08-20T01:04:45.743Z,96547.47
2022-08-20T01:07:13.859Z,96557.09
2022-08-20T01:09:57.615Z,96558.41
2022-08-20T01:12:29.658Z,96561.63
2022-08-20T01:15:00.590Z,96556.00
2022-08-20T01:17:36.234Z,96553.84
2022-08-20T01:20:11.024Z,96555.81
2022-08-20T01:23:07.496Z,96561.41
2022-08-20T01:26:00.284Z,96567.81
2022-08-20T01:28:39.595Z,96570.22
2022-08-20T01:31:10.509Z,96569.41
2022-08-20T01:33:40.863Z,96566.44
2022-08-20T01:36:14.239Z,96572.09
2022-08-20T01:38:53.889Z,96572.09
2022-08-20T01:41:53.322Z,96572.63
2022-08-20T01:44:22.666Z,96575.84
2022-08-20T01:46:55.688Z,96576.34
2022-08-20T01:49:31.939Z,96582.28
2022-08-20T01:52:08.398Z,96577.44
2022-08-20T01:54:37.193Z,96576.88
2022-08-20T01:57:12.645Z,96587.03
2022-08-20T01:59:41.338Z,96583.53
2022-08-20T02:02:10.945Z,96586.00
2022-08-20T02:04:40.181Z,96594.31
2022-08-20T02:07:14.314Z,96594.06
2022-08-20T02:09:43.261Z,96590.84
2022-08-20T02:12:14.517Z,96584.97
2022-08-20T02:14:45.205Z,96583.06
2022-08-20T02:17:15.035Z,96589.53
2022-08-20T02:19:49.722Z,96594.56
2022-08-20T02:22:24.388Z,96588.41
2022-08-20T02:24:53.488Z,96589.25
2022-08-20T02:27:23.729Z,96586.28
2022-08-20T02:29:53.861Z,96585.75
2022-08-20T02:32:28.330Z,96582.84
2022-08-20T02:35:03.166Z,96587.66
2022-08-20T02:37:31.950Z,96591.97
2022-08-20T02:40:00.061Z,96595.22
2022-08-20T02:42:30.470Z,96592.25
2022-08-20T02:44:58.612Z,96597.34
2022-08-20T02:47:27.691Z,96592.75
2022-08-20T02:49:56.314Z,96589.56
2022-08-20T02:52:24.416Z,96584.75
2022-08-20T02:54:52.870Z,96590.66
2022-08-20T02:57:21.633Z,96588.53
2022-08-20T02:59:52.159Z,96591.47
2022-08-20T03:02:21.521Z,96592.03
2022-08-20T03:04:49.692Z,96584.53
2022-08-20T03:07:18.030Z,96586.69
2022-08-20T03:09:46.098Z,96586.72
2022-08-20T03:12:14.350Z,96577.03
2022-08-20T03:14:42.355Z,96572.78
2022-08-20T03:17:11.769Z,96581.09
2022-08-20T03:19:39.875Z,96580.50
2022-08-20T03:22:07.889Z,96586.72
2022-08-20T03:24:35.941Z,96582.72
2022-08-20T03:27:04.335Z,96586.47
2022-08-20T03:29:32.334Z,96585.72
2022-08-20T03:32:03.022Z,96579.78
2022-08-20T03:34:35.862Z,96580.31
2022-08-20T03:37:04.031Z,96580.59
2022-08-20T03:39:32.121Z,96568.84
2022-08-20T03:42:00.166Z,96572.03
2022-08-20T03:44:29.191Z,96571.25
2022-08-20T03:46:57.933Z,96570.69
2022-08-20T03:49:26.257Z,96566.66
2022-08-20T03:51:57.417Z,96573.09
2022-08-20T03:54:29.119Z,96573.09
2022-08-20T03:57:02.223Z,96574.44
2022-08-20T03:59:32.925Z,96574.44
2022-08-20T04:02:01.211Z,96576.03
2022-08-20T04:04:29.400Z,96577.16
2022-08-20T04:06:59.188Z,96578.75
2022-08-20T04:09:27.206Z,96575.28
2022-08-20T04:12:00.117Z,96586.00
2022-08-20T04:14:29.408Z,96575.00
2022-08-20T04:16:58.407Z,96576.66
2022-08-20T04:19:29.144Z,96574.75
2022-08-20T04:22:00.621Z,96584.69
2022-08-20T04:24:31.956Z,96586.81
2022-08-20T04:27:02.556Z,96581.19
2022-08-20T04:29:32.033Z,96585.22
2022-08-20T04:32:02.696Z,96592.94
2022-08-20T04:34:35.195Z,96591.91
2022-08-20T04:37:05.762Z,96595.38
2022-08-20T04:39:45.537Z,96596.19
2022-08-20T04:42:12.648Z,96597.75
2022-08-20T04:44:40.703Z,96606.56
2022-08-20T04:47:08.803Z,96594.31
2022-08-20T04:49:39.234Z,96602.03
2022-08-20T04:52:08.713Z,96601.78
2022-08-20T04:54:36.931Z,96600.44
2022-08-20T04:57:05.439Z,96598.03
2022-08-20T04:59:33.423Z,96600.75
2022-08-20T05:02:02.537Z,96601.28
2022-08-20T05:04:30.716Z,96610.88
2022-08-20T05:06:58.711Z,96612.25
2022-08-20T05:09:28.045Z,96613.06
2022-08-20T05:11:56.084Z,96614.69
2022-08-20T05:14:24.078Z,96613.09
2022-08-20T05:16:55.903Z,96621.13
2022-08-20T05:19:24.263Z,96623.81
2022-08-20T05:21:53.634Z,96627.03
2022-08-20T05:24:21.910Z,96632.38
2022-08-20T05:26:51.402Z,96631.28
2022-08-20T05:29:19.843Z,96633.44
2022-08-20T05:31:47.849Z,96637.22
2022-08-20T05:34:16.161Z,96637.22
2022-08-20T05:36:48.194Z,96636.69
2022-08-20T05:39:19.109Z,96645.78
2022-08-20T05:41:51.114Z,96643.09
2022-08-20T05:44:20.831Z,96646.84
2022-08-20T05:46:49.527Z,96642.25
2022-08-20T05:49:21.046Z,96638.44
2022-08-20T05:51:50.954Z,96642.72
2022-08-20T05:54:19.276Z,96638.19
2022-08-20T05:56:47.300Z,96639.22
2022-08-20T05:59:15.389Z,96630.38
2022-08-20T06:01:44.955Z,96637.84
2022-08-20T06:04:24.572Z,96630.88
2022-08-20T06:06:54.388Z,96643.47
2022-08-20T06:09:31.439Z,96640.03
2022-08-20T06:12:03.192Z,96633.81
2022-08-20T06:14:32.107Z,96642.34
2022-08-20T06:17:13.289Z,96647.22
2022-08-20T06:19:44.181Z,96650.94
2022-08-20T06:22:18.743Z,96649.84
2022-08-20T06:24:55.037Z,96646.66
2022-08-20T06:27:23.513Z,96642.91
2022-08-20T06:29:53.293Z,96646.34
2022-08-20T06:32:31.958Z,96649.03
2022-08-20T06:35:02.374Z,96653.88
2022-08-20T06:37:36.578Z,96657.34
2022-08-20T06:40:10.660Z,96657.34
2022-08-20T06:42:42.435Z,96657.56
2022-08-20T06:45:12.998Z,96665.31
2022-08-20T06:47:45.290Z,96661.31
2022-08-20T06:50:18.963Z,96657.84
2022-08-20T06:52:52.046Z,96656.78
2022-08-20T06:55:32.815Z,96657.03
2022-08-20T06:58:03.640Z,96662.66
2022-08-20T07:00:33.354Z,96658.88
2022-08-20T07:03:03.549Z,96665.31
2022-08-20T07:05:34.597Z,96659.38
2022-08-20T07:08:03.820Z,96664.69
2022-08-20T07:10:32.781Z,96660.91
2022-08-20T07:13:00.879Z,96666.81
2022-08-20T07:15:29.042Z,96662.75
2022-08-20T07:18:01.732Z,96670.75
2022-08-20T07:20:33.554Z,96679.84
2022-08-20T07:23:02.167Z,96669.06
2022-08-20T07:25:33.515Z,96674.69
2022-08-20T07:28:03.012Z,96671.47
2022-08-20T07:30:57.055Z,96670.09
2022-08-20T07:33:28.213Z,96675.22
2022-08-20T07:35:59.014Z,96675.22
2022-08-20T07:38:30.520Z,96674.09
2022-08-20T07:41:02.178Z,96674.06
2022-08-20T07:43:30.854Z,96678.06
2022-08-20T07:46:02.284Z,96679.34
2022-08-20T07:48:32.328Z,96689.78
2022-08-20T07:51:05.592Z,96693.75
2022-08-20T07:53:36.308Z,96690.03
2022-08-20T07:56:10.152Z,96692.44
2022-08-20T07:58:42.414Z,96690.78
2022-08-20T08:01:11.819Z,96689.16
2022-08-20T08:03:49.903Z,96693.41
2022-08-20T08:06:29.538Z,96697.13
2022-08-20T08:09:03.762Z,96694.78
2022-08-20T08:11:34.427Z,96696.91
2022-08-20T08:14:03.780Z,96690.94
2022-08-20T08:16:32.535Z,96695.25
2022-08-20T08:19:01.985Z,96692.84
2022-08-20T08:21:32.151Z,96686.03
2022-08-20T08:24:00.232Z,96678.81
2022-08-20T08:26:29.264Z,96683.31
2022-08-20T08:28:58.061Z,96685.44
2022-08-20T08:31:26.653Z,96681.63
2022-08-20T08:33:55.179Z,96678.34
2022-08-20T08:36:24.259Z,96684.19
2022-08-20T08:38:55.090Z,96690.09
2022-08-20T08:41:31.973Z,96679.38
2022-08-20T08:44:09.352Z,96680.72
2022-08-20T08:46:42.266Z,96689.53
2022-08-20T08:49:17.251Z,96686.28
2022-08-20T08:51:50.364Z,96695.94
2022-08-20T08:54:25.778Z,96701.31
2022-08-20T08:56:54.474Z,96693.06
2022-08-20T08:59:24.438Z,96696.50
2022-08-20T09:01:59.728Z,96694.63
2022-08-20T09:04:33.701Z,96698.44
2022-08-20T09:07:05.965Z,96692.75
2022-08-20T09:09:42.124Z,96693.31
2022-08-20T09:12:13.733Z,96685.75
2022-08-20T09:14:42.144Z,96693.25
2022-08-20T09:17:10.209Z,96688.28
2022-08-20T09:19:38.291Z,96691.50
2022-08-20T09:22:09.911Z,96683.06
2022-08-20T09:24:40.285Z,96687.78
2022-08-20T09:27:08.525Z,96698.31
2022-08-20T09:29:37.016Z,96695.56
2022-08-20T09:32:07.774Z,96697.78
2022-08-20T09:34:41.253Z,96700.84
2022-08-20T09:37:10.816Z,96694.47
2022-08-20T09:39:40.895Z,96694.13
2022-08-20T09:42:17.823Z,96705.72
2022-08-20T09:44:47.200Z,96695.84
2022-08-20T09:47:17.274Z,96690.81
2022-08-20T09:49:46.234Z,96692.81
2022-08-20T09:52:23.274Z,96686.22
2022-08-20T09:54:55.795Z,96684.72
2022-08-20T09:57:24.495Z,96685.84
2022-08-20T09:59:57.068Z,96679.81
2022-08-20T10:02:26.151Z,96685.91
2022-08-20T10:04:54.524Z,96697.53
2022-08-20T10:07:25.855Z,96702.97
2022-08-20T10:09:55.301Z,96704.66
2022-08-20T10:12:23.314Z,96708.34
2022-08-20T10:14:51.388Z,96710.22
2022-08-20T10:17:19.575Z,96716.22
2022-08-20T10:19:47.810Z,96719.78
2022-08-20T10:22:15.910Z,96725.66
2022-08-20T10:24:44.206Z,96721.59
2022-08-20T10:27:13.571Z,96725.13
2022-08-20T10:29:46.608Z,96713.13
2022-08-20T10:32:17.703Z,96720.94
2022-08-20T10:34:49.062Z,96720.53
2022-08-20T10:37:19.696Z,96710.88
2022-08-20T10:39:48.084Z,96708.81
2022-08-20T10:42:17.454Z,96697.53
2022-08-20T10:44:45.667Z,96700.81
2022-08-20T10:47:23.207Z,96696.91
2022-08-20T10:49:54.171Z,96699.06
2022-08-20T10:52:23.741Z,96698.66
2022-08-20T10:54:52.652Z,96700.63
2022-08-20T10:57:25.271Z,96687.50
2022-08-20T10:59:56.032Z,96695.56
2022-08-20T11:02:25.214Z,96692.56
2022-08-20T11:04:54.030Z,96698.66
2022-08-20T11:07:54.808Z,96698.34
2022-08-20T11:10:16.203Z,96689.00
2022-08-20T11:12:46.441Z,96689.47
2022-08-20T11:15:15.482Z,96703.13
2022-08-20T11:17:45.697Z,96694.22
2022-08-20T11:20:17.678Z,96700.41
2022-08-20T11:22:45.740Z,96692.00
2022-08-20T11:25:14.394Z,96693.03
2022-08-20T11:27:48.036Z,96701.09
2022-08-20T11:30:19.594Z,96705.09
2022-08-20T11:32:47.647Z,96704.81
2022-08-20T11:38:04.413Z,96706.34
2022-08-20T11:40:32.596Z,96702.59
2022-08-20T11:43:18.042Z,96699.59
2022-08-20T11:45:48.575Z,96696.91
2022-08-20T11:48:18.718Z,96700.63
2022-08-20T11:50:47.377Z,96688.22
2022-08-20T11:53:15.636Z,96687.63
2022-08-20T11:55:44.217Z,96689.44
2022-08-20T11:58:13.640Z,96688.88
2022-08-20T12:00:42.133Z,96692.38
2022-08-20T12:03:12.031Z,96690.72
2022-08-20T12:05:42.492Z,96697.31
2022-08-20T12:08:27.410Z,96690.00
2022-08-20T12:10:56.920Z,96689.34
2022-08-20T12:13:30.935Z,96690.56
2022-08-20T12:16:14.855Z,96698.28
2022-08-20T12:18:42.990Z,96699.31
2022-08-20T12:21:11.252Z,96700.41
2022-08-20T12:23:39.612Z,96697.06
2022-08-20T12:26:07.896Z,96696.56
2022-08-20T12:28:37.513Z,96695.59
2022-08-20T12:31:06.444Z,96696.84
2022-08-20T12:33:34.458Z,96702.34
2022-08-20T12:36:03.266Z,96698.44
2022-08-20T12:38:31.306Z,96699.94
2022-08-20T12:40:59.543Z,96701.69
2022-08-20T12:43:27.672Z,96705.13
2022-08-20T12:45:57.077Z,96698.06
2022-08-20T12:48:25.214Z,96691.19
2022-08-20T12:50:53.573Z,96688.94
2022-08-20T12:53:21.641Z,96690.06
2022-08-20T12:55:49.727Z,96680.13
2022-08-20T12:58:17.759Z,96679.25
2022-08-20T13:00:51.210Z,96680.75
2022-08-20T13:03:21.295Z,96691.03
2022-08-20T13:06:13.929Z,96690.13
2022-08-20T13:09:06.933Z,96690.84
2022-08-20T13:11:35.012Z,96698.03
2022-08-20T13:14:03.318Z,96692.66
2022-08-20T13:16:31.356Z,96692.22
2022-08-20T13:19:00.751Z,96691.53
2022-08-20T13:21:28.958Z,96682.06
2022-08-20T13:23:57.020Z,96680.19
2022-08-20T13:26:25.112Z,96678.38
2022-08-20T13:28:53.225Z,96682.47
2022-08-20T13:31:21.288Z,96667.94
2022-08-20T13:33:50.094Z,96674.03
2022-08-20T13:36:19.574Z,96666.94
2022-08-20T13:38:47.588Z,96669.84
2022-08-20T13:41:15.909Z,96666.06
2022-08-20T13:43:44.005Z,96672.06
2022-08-20T13:46:12.197Z,96650.47
2022-08-20T13:48:40.297Z,96648.84
2022-08-20T13:51:08.397Z,96661.59
2022-08-20T13:53:38.017Z,96660.69
2022-08-20T13:56:06.538Z,96657.00
2022-08-20T13:58:34.648Z,96661.53
2022-08-20T14:01:02.692Z,96656.84
2022-08-20T14:03:30.790Z,96661.59
2022-08-20T14:06:01.051Z,96657.91
2022-08-20T14:08:29.749Z,96652.91
2022-08-20T14:10:59.547Z,96663.69
2022-08-20T14:13:28.986Z,96653.25
2022-08-20T14:15:57.318Z,96659.72
2022-08-20T14:18:25.346Z,96657.59
2022-08-20T14:20:53.454Z,96668.09
2022-08-20T14:23:21.607Z,96655.28
2022-08-20T14:25:50.723Z,96657.78
2022-08-20T14:28:22.679Z,96654.78
2022-08-20T14:30:53.469Z,96655.56
2022-08-20T14:33:23.174Z,96659.88
2022-08-20T14:35:51.390Z,96652.28
2022-08-20T14:38:19.430Z,96652.28
2022-08-20T14:40:48.417Z,96640.56
2022-08-20T14:43:16.948Z,96649.13
2022-08-20T14:45:46.450Z,96634.63
2022-08-20T14:48:14.996Z,96642.38
2022-08-20T14:50:43.135Z,96638.59
2022-08-20T14:53:11.216Z,96640.38
2022-08-20T14:55:40.184Z,96633.25
2022-08-20T14:58:10.794Z,96637.44
2022-08-20T15:00:39.408Z,96637.19
2022-08-20T15:03:08.909Z,96636.09
2022-08-20T15:05:39.718Z,96643.53
2022-08-20T15:08:10.753Z,96642.97
2022-08-20T15:10:39.832Z,96636.75
2022-08-20T15:13:08.845Z,96633.06
2022-08-20T15:15:36.930Z,96637.66
2022-08-20T15:18:05.286Z,96643.06
2022-08-20T15:20:37.205Z,96635.59
2022-08-20T15:23:06.322Z,96632.91
2022-08-20T15:25:37.915Z,96634.13
2022-08-20T15:28:10.275Z,96633.22
2022-08-20T15:30:40.818Z,96630.75
2022-08-20T15:33:10.006Z,96626.47
2022-08-20T15:35:39.895Z,96620.94
2022-08-20T15:38:08.321Z,96623.41
2022-08-20T15:40:36.532Z,96621.75
2022-08-20T15:43:06.091Z,96616.56
2022-08-20T15:45:36.403Z,96616.09
2022-08-20T15:48:13.249Z,96626.47
2022-08-20T15:51:04.182Z,96617.38
2022-08-20T15:53:39.945Z,96618.50
2022-08-20T15:56:22.247Z,96622.91
2022-08-20T15:59:00.040Z,96619.09
2022-08-20T16:01:40.326Z,96617.41
2022-08-20T16:04:53.463Z,96628.50
2022-08-20T16:07:30.229Z,96633.88
2022-08-20T16:10:06.939Z,96641.50
2022-08-20T16:12:39.431Z,96648.25
2022-08-20T16:15:13.902Z,96647.88
2022-08-20T16:17:50.840Z,96643.09
2022-08-20T16:20:35.269Z,96646.47
2022-08-20T16:23:05.476Z,96637.56
2022-08-20T16:25:50.238Z,96640.09
2022-08-20T16:28:26.586Z,96648.47
2022-08-20T16:31:02.869Z,96645.38
2022-08-20T16:33:41.375Z,96650.69
2022-08-20T16:36:19.786Z,96654.19
2022-08-20T16:38:55.470Z,96661.88
2022-08-20T16:41:29.759Z,96656.28
2022-08-20T16:44:04.795Z,96660.47
2022-08-20T16:46:41.094Z,96651.38
2022-08-20T16:49:13.868Z,96651.47
2022-08-20T16:51:49.414Z,96663.94
2022-08-20T16:54:29.479Z,96660.97
2022-08-20T16:57:03.889Z,96655.28
2022-08-20T16:59:33.517Z,96659.97
2022-08-20T17:02:07.095Z,96654.28
2022-08-20T17:04:53.287Z,96656.56
2022-08-20T17:07:33.546Z,96658.47
2022-08-20T17:10:18.436Z,96665.75
2022-08-20T17:12:47.109Z,96664.34
2022-08-20T17:15:27.529Z,96658.84
2022-08-20T17:17:56.741Z,96655.66
2022-08-20T17:20:28.060Z,96667.91
2022-08-20T17:23:17.918Z,96660.94
2022-08-20T17:25:57.677Z,96660.50
2022-08-20T17:28:26.228Z,96660.03
2022-08-20T17:30:55.292Z,96664.13
2022-08-20T17:33:30.325Z,96666.22
2022-08-20T17:36:05.239Z,96667.41
2022-08-20T17:38:38.364Z,96671.69
2022-08-20T17:41:17.375Z,96670.16
2022-08-20T17:43:46.604Z,96667.84
2022-08-20T17:46:17.418Z,96669.22
2022-08-20T17:48:48.140Z,96669.31
2022-08-20T17:51:20.453Z,96667.72
2022-08-20T17:53:53.811Z,96673.91
2022-08-20T17:56:28.407Z,96672.91
2022-08-20T17:59:03.685Z,96677.78
2022-08-20T18:01:36.092Z,96680.25
2022-08-20T18:04:05.075Z,96676.84
2022-08-20T18:06:54.493Z,96675.84
2022-08-20T18:09:34.925Z,96675.22
2022-08-20T18:12:18.449Z,96682.56
2022-08-20T18:15:08.988Z,96685.63
2022-08-20T18:18:10.104Z,96687.88
2022-08-20T18:21:12.615Z,96689.34
2022-08-20T18:23:47.860Z,96687.25
2022-08-20T18:26:24.927Z,96691.31
2022-08-20T18:28:58.469Z,96690.88
2022-08-20T18:31:30.841Z,96692.53
2022-08-20T18:34:14.118Z,96692.31
2022-08-20T18:36:42.946Z,96682.00
2022-08-20T18:39:25.569Z,96693.91
2022-08-20T18:41:59.991Z,96690.47
2022-08-20T18:44:38.946Z,96690.25
2022-08-20T18:47:20.872Z,96700.56
2022-08-20T18:50:02.782Z,96697.38
2022-08-20T18:52:33.046Z,96699.84
2022-08-20T18:55:06.832Z,96702.28
2022-08-20T18:57:41.117Z,96699.94
2022-08-20T19:00:18.045Z,96702.75
2022-08-20T19:02:58.023Z,96696.69
2022-08-20T19:05:32.512Z,96703.25
2022-08-20T19:08:03.637Z,96707.91
2022-08-20T19:10:48.461Z,96711.22
2022-08-20T19:14:00.326Z,96713.09
2022-08-20T19:16:38.007Z,96725.97
2022-08-20T19:19:15.318Z,96716.41
2022-08-20T19:21:43.980Z,96729.06
2022-08-20T19:24:16.444Z,96719.09
2022-08-20T19:26:51.788Z,96730.44
2022-08-20T19:29:27.462Z,96734.75
2022-08-20T19:32:01.612Z,96732.13
2022-08-20T19:34:31.539Z,96725.19
2022-08-20T19:37:08.991Z,96724.94
2022-08-20T19:39:51.753Z,96729.84
2022-08-20T19:42:27.266Z,96723.16
2022-08-20T19:44:58.074Z,96726.66
2022-08-20T19:47:32.994Z,96713.53
2022-08-20T19:50:18.405Z,96722.16
2022-08-20T19:52:57.811Z,96718.97
2022-08-20T19:55:30.913Z,96719.28
2022-08-20T19:58:02.281Z,96718.22
2022-08-20T20:00:41.900Z,96720.66
2022-08-20T20:03:13.087Z,96722.81
2022-08-20T20:05:51.415Z,96716.41
2022-08-20T20:08:20.380Z,96718.06
2022-08-20T20:10:54.091Z,96721.03
2022-08-20T20:13:27.180Z,96728.81
2022-08-20T20:16:01.914Z,96718.94
2022-08-20T20:18:36.941Z,96725.66
2022-08-20T20:21:15.884Z,96726.47
2022-08-20T20:23:54.230Z,96731.31
2022-08-20T20:26:25.433Z,96727.25
2022-08-20T20:29:01.917Z,96720.56
2022-08-20T20:31:33.741Z,96723.00
2022-08-20T20:34:11.204Z,96722.72
2022-08-20T20:36:42.592Z,96723.03
2022-08-20T20:39:24.246Z,96721.69
2022-08-20T20:41:54.999Z,96723.31
2022-08-20T20:44:29.094Z,96730.81
2022-08-20T20:47:01.155Z,96724.13
2022-08-20T20:49:33.210Z,96719.84
2022-08-20T20:52:05.842Z,96719.56
2022-08-20T20:54:46.122Z,96715.84
2022-08-20T20:57:37.951Z,96717.19
2022-08-20T21:00:12.243Z,96715.34
2022-08-20T21:02:41.003Z,96713.97
2022-08-20T21:05:11.630Z,96716.13
2022-08-20T21:07:50.590Z,96714.78
2022-08-20T21:10:21.828Z,96718.00
2022-08-20T21:12:52.911Z,96722.03
2022-08-20T21:15:23.045Z,96715.59
2022-08-20T21:17:51.546Z,96715.63
2022-08-20T21:20:22.486Z,96716.16
2022-08-20T21:22:50.668Z,96720.09
2022-08-20T21:25:20.361Z,96713.44
2022-08-20T21:27:51.545Z,96714.25
2022-08-20T21:30:21.675Z,96710.50
2022-08-20T21:32:50.633Z,96713.97
2022-08-20T21:35:21.662Z,96714.22
2022-08-20T21:37:49.967Z,96720.91
2022-08-20T21:40:21.734Z,96724.13
2022-08-20T21:42:50.258Z,96717.16
2022-08-20T21:45:20.042Z,96722.22
2022-08-20T21:47:48.815Z,96721.97
2022-08-20T21:50:19.087Z,96720.88
2022-08-20T21:52:55.313Z,96728.38
2022-08-20T21:55:30.118Z,96728.66
2022-08-20T21:57:59.215Z,96727.31
2022-08-20T22:00:53.867Z,96723.00
2022-08-20T22:03:24.875Z,96727.28
2022-08-20T22:05:53.930Z,96732.66
2022-08-20T22:08:28.145Z,96734.25
2022-08-20T22:10:57.781Z,96734.00
2022-08-20T22:13:28.442Z,96728.91
2022-08-20T22:15:56.563Z,96732.91
2022-08-20T22:18:24.824Z,96740.38
2022-08-20T22:20:53.357Z,96737.97
2022-08-20T22:23:23.948Z,96732.34
2022-08-20T22:25:52.457Z,96740.63
2022-08-20T22:28:21.375Z,96737.66
2022-08-20T22:30:49.476Z,96740.31
2022-08-20T22:33:23.245Z,96741.41
2022-08-20T22:35:54.587Z,96736.88
2022-08-20T22:38:24.555Z,96737.91
2022-08-20T22:40:53.974Z,96741.13
2022-08-20T22:43:23.173Z,96736.00
2022-08-20T22:45:56.502Z,96739.75
2022-08-20T22:48:24.594Z,96739.97
2022-08-20T22:50:53.240Z,96736.47
2022-08-20T22:53:25.265Z,96736.50
2022-08-20T22:55:53.751Z,96738.06
2022-08-20T22:58:30.355Z,96738.88
2022-08-20T23:01:02.170Z,96742.06
2022-08-20T23:03:39.685Z,96739.16
2022-08-20T23:06:10.497Z,96733.00
2022-08-20T23:08:41.473Z,96741.28
2022-08-20T23:11:10.302Z,96737.81
2022-08-20T23:13:39.196Z,96735.91
2022-08-20T23:16:08.649Z,96746.06
2022-08-20T23:18:36.798Z,96740.44
2022-08-20T23:21:05.204Z,96744.16
2022-08-20T23:23:33.838Z,96736.16
2022-08-20T23:26:03.452Z,96745.22
2022-08-20T23:28:31.608Z,96742.50
2022-08-20T23:30:59.949Z,96740.38
2022-08-20T23:33:29.082Z,96747.00
2022-08-20T23:35:57.312Z,96743.78
2022-08-20T23:38:25.358Z,96739.25
2022-08-20T23:40:53.429Z,96736.84
2022-08-20T23:43:22.829Z,96734.72
2022-08-20T23:45:50.990Z,96738.22
2022-08-20T23:48:19.065Z,96739.81
2022-08-20T23:50:47.205Z,96731.50
2022-08-20T23:53:15.199Z,96732.03
2022-08-20T23:55:43.756Z,96726.94
2022-08-20T23:58:11.865Z,96729.31
